IBE550 EDVK-EDDV

Flight info

Callsign IBE550
Flight time 0h 29m
Altitude 13000
Route WRB1W WRB WRB1X
Aircraft A320/M-SDE3FGHIRWY/LB1

Departure

Time 2026-04-23 15:57
Airport Kassel Airport (EDVK)

Arrival

Time 2026-04-23 16:27
Airport Hannover Airport (EDDV)
Time Latitude Longitude Altitude Speed Heading
2026-04-23 15:47 51.41730 9.39695 846 ft 0 kts 276°
2026-04-23 15:52 51.41730 9.39693 846 ft 1 kts 276°
2026-04-23 15:52 51.41734 9.39686 846 ft 1 kts 307°
2026-04-23 15:52 51.41741 9.39693 834 ft 2 kts 33°
2026-04-23 15:52 51.41771 9.39739 846 ft 10 kts 45°
2026-04-23 15:53 51.41856 9.39783 846 ft 16 kts 16°
2026-04-23 15:53 51.41879 9.39977 839 ft 22 kts 97°
2026-04-23 15:53 51.41865 9.40223 837 ft 23 kts 95°
2026-04-23 15:53 51.41850 9.40489 831 ft 25 kts 95°
2026-04-23 15:54 51.41835 9.40777 827 ft 27 kts 95°
2026-04-23 15:54 51.41884 9.40975 834 ft 19 kts
2026-04-23 15:54 51.41916 9.40981 834 ft 0 kts
2026-04-23 15:56 51.41919 9.40981 834 ft 1 kts
2026-04-23 15:56 51.41976 9.40941 833 ft 14 kts 308°
2026-04-23 15:56 51.41994 9.40790 835 ft 14 kts 276°
2026-04-23 15:57 51.42014 9.40457 831 ft 58 kts 275°
2026-04-23 15:57 51.42068 9.39493 841 ft 114 kts 275°
2026-04-23 15:57 51.42151 9.37975 963 ft 152 kts 278°
2026-04-23 15:57 51.42275 9.36233 1619 ft 162 kts 277°
2026-04-23 15:58 51.42347 9.34482 2588 ft 156 kts 278°
2026-04-23 15:58 51.42417 9.32750 3387 ft 155 kts 279°
2026-04-23 15:58 51.42508 9.31038 4060 ft 156 kts 281°
2026-04-23 15:58 51.42611 9.29237 4586 ft 169 kts 281°
2026-04-23 15:59 51.42725 9.27273 4979 ft 190 kts 282°
2026-04-23 15:59 51.42861 9.24989 4996 ft 217 kts 280°
2026-04-23 15:59 51.42990 9.22571 5048 ft 217 kts 280°
2026-04-23 15:59 51.43111 9.20176 5447 ft 215 kts 280°
2026-04-23 16:00 51.43237 9.17709 6097 ft 231 kts 280°
2026-04-23 16:00 51.43377 9.15046 6888 ft 247 kts 279°
2026-04-23 16:00 51.43521 9.12280 7881 ft 251 kts 279°
2026-04-23 16:00 51.43918 9.09605 8973 ft 244 kts 304°
2026-04-23 16:01 51.45121 9.07815 10061 ft 236 kts 340°
2026-04-23 16:01 51.46698 9.07539 11199 ft 228 kts 11°
2026-04-23 16:01 51.48119 9.08564 12118 ft 233 kts 33°
2026-04-23 16:01 51.49496 9.10076 12739 ft 248 kts 30°
2026-04-23 16:02 51.51000 9.11617 13228 ft 267 kts 29°
2026-04-23 16:02 51.52682 9.13245 13320 ft 298 kts 28°
2026-04-23 16:02 51.54566 9.15015 13295 ft 329 kts 28°
2026-04-23 16:02 51.56628 9.16943 13274 ft 357 kts 28°
2026-04-23 16:03 51.58847 9.19035 13281 ft 382 kts 29°
2026-04-23 16:03 51.61182 9.21263 13282 ft 395 kts 29°
2026-04-23 16:03 51.63542 9.23537 13292 ft 395 kts 29°
2026-04-23 16:03 51.65898 9.25823 13298 ft 396 kts 29°
2026-04-23 16:04 51.68253 9.28114 13287 ft 396 kts 29°
2026-04-23 16:04 51.70610 9.30404 13283 ft 395 kts 29°
2026-04-23 16:04 51.72966 9.32693 13289 ft 395 kts 29°
2026-04-23 16:04 51.75324 9.34981 13283 ft 395 kts 29°
2026-04-23 16:05 51.76885 9.36493 13285 ft 395 kts 29°
2026-04-23 16:05 51.80037 9.39552 13283 ft 395 kts 29°
2026-04-23 16:05 51.82393 9.41851 13285 ft 395 kts 30°
2026-04-23 16:05 51.84742 9.44149 13282 ft 395 kts 29°
2026-04-23 16:06 51.87091 9.46450 13279 ft 395 kts 30°
2026-04-23 16:06 51.89441 9.48753 13279 ft 394 kts 30°
2026-04-23 16:06 51.91787 9.51053 13195 ft 392 kts 30°
2026-04-23 16:06 51.94096 9.53323 12607 ft 384 kts 30°
2026-04-23 16:07 51.96360 9.55554 11594 ft 379 kts 30°
2026-04-23 16:07 51.98613 9.57774 10714 ft 375 kts 29°
2026-04-23 16:07 52.00789 9.59919 10386 ft 355 kts 29°
2026-04-23 16:07 52.02832 9.61932 10258 ft 333 kts 29°
2026-04-23 16:08 52.04678 9.63887 10272 ft 311 kts 38°
2026-04-23 16:08 52.06035 9.66543 10293 ft 295 kts 53°
2026-04-23 16:08 52.07105 9.69241 10243 ft 281 kts 54°
2026-04-23 16:08 52.08132 9.71908 9957 ft 277 kts 54°
2026-04-23 16:09 52.09150 9.74559 9526 ft 277 kts 54°
2026-04-23 16:09 52.10170 9.77224 9121 ft 277 kts 54°
2026-04-23 16:09 52.11184 9.79884 8757 ft 276 kts 54°
2026-04-23 16:09 52.12193 9.82530 8421 ft 274 kts 54°
2026-04-23 16:10 52.13192 9.85162 8070 ft 272 kts 54°
2026-04-23 16:10 52.14182 9.87782 7708 ft 272 kts 54°
2026-04-23 16:10 52.15165 9.90402 7361 ft 270 kts 54°
2026-04-23 16:10 52.16143 9.93010 7032 ft 269 kts 54°
2026-04-23 16:11 52.17112 9.95602 6700 ft 267 kts 54°
2026-04-23 16:11 52.18070 9.98186 6334 ft 266 kts 54°
2026-04-23 16:11 52.19028 10.00746 6265 ft 263 kts 54°
2026-04-23 16:11 52.19997 10.03326 6297 ft 267 kts 54°
2026-04-23 16:12 52.20962 10.05910 6269 ft 267 kts 56°
2026-04-23 16:12 52.21914 10.08501 6282 ft 264 kts 45°
2026-04-23 16:12 52.23265 10.10464 6264 ft 258 kts 27°
2026-04-23 16:12 52.24948 10.11282 6265 ft 253 kts 359°
2026-04-23 16:13 52.26679 10.10847 6238 ft 253 kts 346°
2026-04-23 16:13 52.30022 10.09366 6262 ft 238 kts 344°
2026-04-23 16:13 52.31567 10.08656 6263 ft 224 kts 344°
2026-04-23 16:14 52.33028 10.07985 6274 ft 213 kts 344°
2026-04-23 16:14 52.34425 10.07346 6270 ft 206 kts 344°
2026-04-23 16:14 52.35811 10.06711 6269 ft 207 kts 344°
2026-04-23 16:14 52.37197 10.06073 6255 ft 203 kts 344°
2026-04-23 16:15 52.38513 10.05467 6256 ft 190 kts 343°
2026-04-23 16:15 52.39760 10.04881 6269 ft 186 kts 344°
2026-04-23 16:15 52.40988 10.04308 6271 ft 186 kts 344°
2026-04-23 16:15 52.42232 10.03734 6267 ft 186 kts 345°
2026-04-23 16:16 52.43476 10.03153 6267 ft 186 kts 344°
2026-04-23 16:16 52.44723 10.02573 6278 ft 186 kts 344°
2026-04-23 16:16 52.45971 10.01998 6269 ft 186 kts 344°
2026-04-23 16:16 52.47221 10.01425 6272 ft 186 kts 344°
2026-04-23 16:17 52.48468 10.00847 6269 ft 186 kts 344°
2026-04-23 16:17 52.49716 10.00274 6275 ft 186 kts 345°
2026-04-23 16:17 52.50985 10.00259 6304 ft 187 kts 19°
2026-04-23 16:17 52.52000 10.01602 6292 ft 196 kts 56°
2026-04-23 16:18 52.52335 10.03808 6277 ft 207 kts 83°
2026-04-23 16:18 52.52305 10.06192 6250 ft 210 kts 88°
2026-04-23 16:18 52.52210 10.08590 6273 ft 211 kts 89°
2026-04-23 16:18 52.52102 10.10984 6154 ft 210 kts 89°
2026-04-23 16:19 52.51992 10.13367 5985 ft 209 kts 90°
2026-04-23 16:19 52.51544 10.15624 5825 ft 211 kts 125°
2026-04-23 16:19 52.50384 10.17063 5640 ft 214 kts 162°
2026-04-23 16:19 52.48916 10.17531 5366 ft 217 kts 184°
2026-04-23 16:20 52.47474 10.16984 5178 ft 213 kts 201°
2026-04-23 16:20 52.46082 10.16141 4933 ft 213 kts 204°
2026-04-23 16:20 52.44699 10.15262 4759 ft 213 kts 204°
2026-04-23 16:20 52.43324 10.14382 4586 ft 211 kts 204°
2026-04-23 16:21 52.42019 10.13348 4381 ft 205 kts 227°
2026-04-23 16:21 52.41299 10.11477 4253 ft 191 kts 266°
2026-04-23 16:21 52.41443 10.09421 4108 ft 180 kts 298°
2026-04-23 16:21 52.42016 10.07585 3970 ft 183 kts 303°
2026-04-23 16:22 52.42666 10.05806 3807 ft 181 kts 304°
2026-04-23 16:22 52.43322 10.04071 3643 ft 181 kts 304°
2026-04-23 16:22 52.43993 10.02296 3464 ft 181 kts 304°
2026-04-23 16:22 52.44600 10.00527 3272 ft 181 kts 290°
2026-04-23 16:23 52.44571 9.98487 3115 ft 181 kts 268°
2026-04-23 16:23 52.44586 9.96425 3045 ft 182 kts 278°
2026-04-23 16:23 52.44695 9.94355 2926 ft 182 kts 278°
2026-04-23 16:23 52.44779 9.92273 2732 ft 184 kts 277°
2026-04-23 16:24 52.44849 9.90157 2486 ft 188 kts 276°
2026-04-23 16:24 52.44916 9.87993 2238 ft 193 kts 276°
2026-04-23 16:24 52.44982 9.85769 1956 ft 197 kts 275°
2026-04-23 16:24 52.45045 9.83574 1686 ft 187 kts 275°
2026-04-23 16:25 52.45105 9.81494 1428 ft 178 kts 276°
2026-04-23 16:25 52.45163 9.79488 1198 ft 177 kts 276°
2026-04-23 16:25 52.45219 9.77547 1010 ft 164 kts 275°
2026-04-23 16:25 52.45268 9.75793 786 ft 143 kts 276°
2026-04-23 16:26 52.45313 9.74226 601 ft 137 kts 276°
2026-04-23 16:26 52.45348 9.72671 420 ft 136 kts 277°
2026-04-23 16:26 52.45402 9.71134 237 ft 135 kts 277°
2026-04-23 16:26 52.45450 9.69671 190 ft 115 kts 273°
2026-04-23 16:27 52.45464 9.68893 188 ft 46 kts 272°
2026-04-23 16:27 52.45483 9.68404 186 ft 41 kts 275°
2026-04-23 16:27 52.45534 9.68252 189 ft 10 kts 39°
2026-04-23 16:27 52.45573 9.68260 205 ft 4 kts 358°
2026-04-23 16:28 52.45593 9.68259 196 ft 2 kts 358°
2026-04-23 16:28 52.45629 9.68280 203 ft 8 kts 34°
2026-04-23 16:28 52.45643 9.68395 193 ft 13 kts 94°
2026-04-23 16:28 52.45638 9.68561 192 ft 15 kts 92°
2026-04-23 16:29 52.45634 9.68737 197 ft 16 kts 93°
2026-04-23 16:29 52.45628 9.68923 206 ft 17 kts 92°
2026-04-23 16:29 52.45623 9.69123 192 ft 19 kts 92°
2026-04-23 16:29 52.45616 9.69346 193 ft 20 kts 92°
2026-04-23 16:30 52.45610 9.69589 193 ft 22 kts 93°
2026-04-23 16:30 52.45606 9.69826 193 ft 13 kts 79°
2026-04-23 16:30 52.45643 9.69838 193 ft 5 kts 349°
2026-04-23 16:30 52.45689 9.69849 203 ft 9 kts 26°
2026-04-23 16:31 52.45723 9.69933 197 ft 9 kts 70°
2026-04-23 16:31 52.45743 9.69965 195 ft 0 kts 30°
2026-04-23 16:34 54.91118 8.32722 40 ft 0 kts 59°
2026-04-23 16:36 54.91337 8.32451 41 ft 0 kts 260°
2026-04-23 16:37 54.91418 8.32421 41 ft 0 kts 264°